sensor_id;sensor_type;location;lat;lon;timestamp;temperature;humidity
54140;DHT22;40046;53.254;5.900;2022-09-13T00:00:42;17.90;99.90
54140;DHT22;40046;53.254;5.900;2022-09-13T00:03:10;17.90;99.90
54140;DHT22;40046;53.254;5.900;2022-09-13T00:05:36;17.90;99.90
54140;DHT22;40046;53.254;5.900;2022-09-13T00:08:02;17.90;99.90
54140;DHT22;40046;53.254;5.900;2022-09-13T00:10:28;17.90;99.90
54140;DHT22;40046;53.254;5.900;2022-09-13T00:12:54;17.90;99.90
54140;DHT22;40046;53.254;5.900;2022-09-13T00:15:20;17.90;99.90
54140;DHT22;40046;53.254;5.900;2022-09-13T00:17:46;17.90;99.90
54140;DHT22;40046;53.254;5.900;2022-09-13T00:20:13;17.90;99.90
54140;DHT22;40046;53.254;5.900;2022-09-13T00:22:38;17.90;99.90
54140;DHT22;40046;53.254;5.900;2022-09-13T00:25:05;17.90;99.90
54140;DHT22;40046;53.254;5.900;2022-09-13T00:27:35;17.90;99.90
54140;DHT22;40046;53.254;5.900;2022-09-13T00:30:02;17.90;99.90
54140;DHT22;40046;53.254;5.900;2022-09-13T00:32:28;17.90;99.90
54140;DHT22;40046;53.254;5.900;2022-09-13T00:34:53;17.90;99.90
54140;DHT22;40046;53.254;5.900;2022-09-13T00:37:19;17.90;99.90
54140;DHT22;40046;53.254;5.900;2022-09-13T00:39:45;17.90;99.90
54140;DHT22;40046;53.254;5.900;2022-09-13T00:42:11;17.90;99.90
54140;DHT22;40046;53.254;5.900;2022-09-13T00:44:54;17.90;99.90
54140;DHT22;40046;53.254;5.900;2022-09-13T00:47:26;17.90;99.90
54140;DHT22;40046;53.254;5.900;2022-09-13T00:49:58;17.80;99.90
54140;DHT22;40046;53.254;5.900;2022-09-13T00:52:27;17.90;99.90
54140;DHT22;40046;53.254;5.900;2022-09-13T00:55:02;17.90;99.90
54140;DHT22;40046;53.254;5.900;2022-09-13T00:57:31;17.90;99.90
54140;DHT22;40046;53.254;5.900;2022-09-13T01:00:08;17.90;99.90
54140;DHT22;40046;53.254;5.900;2022-09-13T01:02:39;17.90;99.90
54140;DHT22;40046;53.254;5.900;2022-09-13T01:05:06;17.80;99.90
54140;DHT22;40046;53.254;5.900;2022-09-13T01:07:33;17.90;99.90
54140;DHT22;40046;53.254;5.900;2022-09-13T01:09:58;17.90;99.90
54140;DHT22;40046;53.254;5.900;2022-09-13T01:12:36;17.80;99.90
54140;DHT22;40046;53.254;5.900;2022-09-13T01:15:05;17.80;99.90
54140;DHT22;40046;53.254;5.900;2022-09-13T01:17:32;17.90;99.90
54140;DHT22;40046;53.254;5.900;2022-09-13T01:20:00;17.90;99.90
54140;DHT22;40046;53.254;5.900;2022-09-13T01:22:57;17.80;99.90
54140;DHT22;40046;53.254;5.900;2022-09-13T01:31:42;17.80;99.90
54140;DHT22;40046;53.254;5.900;2022-09-13T01:37:35;17.80;99.90
54140;DHT22;40046;53.254;5.900;2022-09-13T01:46:15;17.80;99.90
54140;DHT22;40046;53.254;5.900;2022-09-13T01:51:45;17.80;99.90
54140;DHT22;40046;53.254;5.900;2022-09-13T01:54:29;17.80;99.90
54140;DHT22;40046;53.254;5.900;2022-09-13T01:57:15;17.80;99.90
54140;DHT22;40046;53.254;5.900;2022-09-13T01:59:49;17.80;99.90
54140;DHT22;40046;53.254;5.900;2022-09-13T02:04:53;17.80;99.90
54140;DHT22;40046;53.254;5.900;2022-09-13T02:07:29;17.80;99.90
54140;DHT22;40046;53.254;5.900;2022-09-13T02:10:03;17.90;99.90
54140;DHT22;40046;53.254;5.900;2022-09-13T02:12:33;17.90;99.90
54140;DHT22;40046;53.254;5.900;2022-09-13T02:15:07;17.90;99.90
54140;DHT22;40046;53.254;5.900;2022-09-13T02:17:48;17.80;99.90
54140;DHT22;40046;53.254;5.900;2022-09-13T02:20:29;17.80;99.90
54140;DHT22;40046;53.254;5.900;2022-09-13T02:22:59;17.70;99.90
54140;DHT22;40046;53.254;5.900;2022-09-13T02:25:27;17.70;99.90
54140;DHT22;40046;53.254;5.900;2022-09-13T02:27:58;17.70;99.90
54140;DHT22;40046;53.254;5.900;2022-09-13T02:30:26;17.70;99.90
54140;DHT22;40046;53.254;5.900;2022-09-13T02:33:12;17.70;99.90
54140;DHT22;40046;53.254;5.900;2022-09-13T02:36:01;17.60;99.90
54140;DHT22;40046;53.254;5.900;2022-09-13T02:38:38;17.60;99.90
54140;DHT22;40046;53.254;5.900;2022-09-13T02:41:29;17.60;99.90
54140;DHT22;40046;53.254;5.900;2022-09-13T02:45:06;17.60;99.90
54140;DHT22;40046;53.254;5.900;2022-09-13T02:58:04;17.60;99.90
54140;DHT22;40046;53.254;5.900;2022-09-13T03:00:33;17.60;99.90
54140;DHT22;40046;53.254;5.900;2022-09-13T03:03:02;17.50;99.90
54140;DHT22;40046;53.254;5.900;2022-09-13T03:05:29;17.50;99.90
54140;DHT22;40046;53.254;5.900;2022-09-13T03:07:54;17.60;99.90
54140;DHT22;40046;53.254;5.900;2022-09-13T03:10:21;17.50;99.90
54140;DHT22;40046;53.254;5.900;2022-09-13T03:18:58;17.50;99.90
54140;DHT22;40046;53.254;5.900;2022-09-13T03:24:21;17.50;99.90
54140;DHT22;40046;53.254;5.900;2022-09-13T03:26:57;17.50;99.90
54140;DHT22;40046;53.254;5.900;2022-09-13T03:29:30;17.50;99.90
54140;DHT22;40046;53.254;5.900;2022-09-13T03:40:09;17.50;99.90
54140;DHT22;40046;53.254;5.900;2022-09-13T03:42:49;17.50;99.90
54140;DHT22;40046;53.254;5.900;2022-09-13T03:45:20;17.50;99.90
54140;DHT22;40046;53.254;5.900;2022-09-13T03:47:49;17.50;99.90
54140;DHT22;40046;53.254;5.900;2022-09-13T03:50:19;17.50;99.90
54140;DHT22;40046;53.254;5.900;2022-09-13T03:52:47;17.50;99.90
54140;DHT22;40046;53.254;5.900;2022-09-13T03:55:17;17.50;99.90
54140;DHT22;40046;53.254;5.900;2022-09-13T03:57:44;17.50;99.90
54140;DHT22;40046;53.254;5.900;2022-09-13T04:00:12;17.50;99.90
54140;DHT22;40046;53.254;5.900;2022-09-13T04:02:39;17.50;99.90
54140;DHT22;40046;53.254;5.900;2022-09-13T04:05:05;17.50;99.90
54140;DHT22;40046;53.254;5.900;2022-09-13T04:07:31;17.40;99.90
54140;DHT22;40046;53.254;5.900;2022-09-13T04:09:57;17.50;99.90
54140;DHT22;40046;53.254;5.900;2022-09-13T04:12:24;17.40;99.90
54140;DHT22;40046;53.254;5.900;2022-09-13T04:14:49;17.40;99.90
54140;DHT22;40046;53.254;5.900;2022-09-13T04:17:16;17.40;99.90
54140;DHT22;40046;53.254;5.900;2022-09-13T04:19:42;17.40;99.90
54140;DHT22;40046;53.254;5.900;2022-09-13T04:22:12;17.40;99.90
54140;DHT22;40046;53.254;5.900;2022-09-13T04:24:38;17.40;99.90
54140;DHT22;40046;53.254;5.900;2022-09-13T04:27:04;17.40;99.90
54140;DHT22;40046;53.254;5.900;2022-09-13T04:29:31;17.40;99.90
54140;DHT22;40046;53.254;5.900;2022-09-13T04:31:57;17.40;99.90
54140;DHT22;40046;53.254;5.900;2022-09-13T04:34:22;17.30;99.90
54140;DHT22;40046;53.254;5.900;2022-09-13T04:36:49;17.30;99.90
54140;DHT22;40046;53.254;5.900;2022-09-13T04:39:15;17.30;99.90
54140;DHT22;40046;53.254;5.900;2022-09-13T04:41:42;17.30;99.90
54140;DHT22;40046;53.254;5.900;2022-09-13T04:44:09;17.30;99.90
54140;DHT22;40046;53.254;5.900;2022-09-13T04:46:35;17.30;99.90
54140;DHT22;40046;53.254;5.900;2022-09-13T04:49:00;17.30;99.90
54140;DHT22;40046;53.254;5.900;2022-09-13T04:51:26;17.30;99.90
54140;DHT22;40046;53.254;5.900;2022-09-13T04:53:53;17.30;99.90
54140;DHT22;40046;53.254;5.900;2022-09-13T04:56:20;17.20;99.90
54140;DHT22;40046;53.254;5.900;2022-09-13T04:58:50;17.20;99.90
54140;DHT22;40046;53.254;5.900;2022-09-13T05:01:16;17.20;99.90
54140;DHT22;40046;53.254;5.900;2022-09-13T05:03:42;17.20;99.90
54140;DHT22;40046;53.254;5.900;2022-09-13T05:06:11;17.20;99.90
54140;DHT22;40046;53.254;5.900;2022-09-13T05:08:38;17.20;99.90
54140;DHT22;40046;53.254;5.900;2022-09-13T05:11:04;17.20;99.90
54140;DHT22;40046;53.254;5.900;2022-09-13T05:13:31;17.20;99.90
54140;DHT22;40046;53.254;5.900;2022-09-13T05:16:00;17.20;99.90
54140;DHT22;40046;53.254;5.900;2022-09-13T05:18:34;17.20;99.90
54140;DHT22;40046;53.254;5.900;2022-09-13T05:21:03;17.20;99.90
54140;DHT22;40046;53.254;5.900;2022-09-13T05:23:30;17.20;99.90
54140;DHT22;40046;53.254;5.900;2022-09-13T05:25:58;17.30;99.90
54140;DHT22;40046;53.254;5.900;2022-09-13T05:28:26;17.20;99.90
54140;DHT22;40046;53.254;5.900;2022-09-13T05:30:57;17.30;99.90
54140;DHT22;40046;53.254;5.900;2022-09-13T05:33:24;17.20;99.90
54140;DHT22;40046;53.254;5.900;2022-09-13T05:35:50;17.20;99.90
54140;DHT22;40046;53.254;5.900;2022-09-13T05:38:16;17.20;99.90
54140;DHT22;40046;53.254;5.900;2022-09-13T05:40:42;17.20;99.90
54140;DHT22;40046;53.254;5.900;2022-09-13T05:43:08;17.20;99.90
54140;DHT22;40046;53.254;5.900;2022-09-13T05:45:33;17.20;99.90
54140;DHT22;40046;53.254;5.900;2022-09-13T05:47:59;17.10;99.90
54140;DHT22;40046;53.254;5.900;2022-09-13T05:50:25;17.10;99.90
54140;DHT22;40046;53.254;5.900;2022-09-13T05:52:54;17.10;99.90
54140;DHT22;40046;53.254;5.900;2022-09-13T05:55:21;17.00;99.90
54140;DHT22;40046;53.254;5.900;2022-09-13T05:57:47;17.00;99.90
54140;DHT22;40046;53.254;5.900;2022-09-13T06:00:14;17.00;99.90
54140;DHT22;40046;53.254;5.900;2022-09-13T06:02:40;17.00;99.90
54140;DHT22;40046;53.254;5.900;2022-09-13T06:05:09;16.90;99.90
54140;DHT22;40046;53.254;5.900;2022-09-13T06:07:38;16.90;99.90
54140;DHT22;40046;53.254;5.900;2022-09-13T06:10:06;16.90;99.90
54140;DHT22;40046;53.254;5.900;2022-09-13T06:12:32;16.80;99.90
54140;DHT22;40046;53.254;5.900;2022-09-13T06:14:58;16.80;99.90
54140;DHT22;40046;53.254;5.900;2022-09-13T06:17:24;16.70;99.90
54140;DHT22;40046;53.254;5.900;2022-09-13T06:19:50;16.70;99.90
54140;DHT22;40046;53.254;5.900;2022-09-13T06:22:16;16.70;99.90
54140;DHT22;40046;53.254;5.900;2022-09-13T06:24:41;16.70;99.90
54140;DHT22;40046;53.254;5.900;2022-09-13T06:27:07;16.70;99.90
54140;DHT22;40046;53.254;5.900;2022-09-13T06:29:35;16.70;99.90
54140;DHT22;40046;53.254;5.900;2022-09-13T06:32:02;16.70;99.90
54140;DHT22;40046;53.254;5.900;2022-09-13T06:34:28;16.70;99.90
54140;DHT22;40046;53.254;5.900;2022-09-13T06:36:53;16.70;99.90
54140;DHT22;40046;53.254;5.900;2022-09-13T06:39:19;16.70;99.90
54140;DHT22;40046;53.254;5.900;2022-09-13T06:41:45;16.70;99.90
54140;DHT22;40046;53.254;5.900;2022-09-13T06:44:10;16.70;99.90
54140;DHT22;40046;53.254;5.900;2022-09-13T06:46:37;16.80;99.90
54140;DHT22;40046;53.254;5.900;2022-09-13T06:49:06;16.80;99.90
54140;DHT22;40046;53.254;5.900;2022-09-13T06:51:34;16.80;99.90
54140;DHT22;40046;53.254;5.900;2022-09-13T06:54:00;16.80;99.90
54140;DHT22;40046;53.254;5.900;2022-09-13T06:56:33;16.90;99.90
54140;DHT22;40046;53.254;5.900;2022-09-13T06:59:01;16.90;99.90
54140;DHT22;40046;53.254;5.900;2022-09-13T07:04:01;17.00;99.90
54140;DHT22;40046;53.254;5.900;2022-09-13T07:06:30;17.00;99.90
54140;DHT22;40046;53.254;5.900;2022-09-13T07:08:57;17.10;99.90
54140;DHT22;40046;53.254;5.900;2022-09-13T07:11:27;17.20;99.90
54140;DHT22;40046;53.254;5.900;2022-09-13T07:13:55;17.20;99.90
54140;DHT22;40046;53.254;5.900;2022-09-13T07:16:23;17.20;99.90
54140;DHT22;40046;53.254;5.900;2022-09-13T07:18:53;17.30;99.90
54140;DHT22;40046;53.254;5.900;2022-09-13T07:21:20;17.30;99.90
54140;DHT22;40046;53.254;5.900;2022-09-13T07:23:47;17.40;99.90
54140;DHT22;40046;53.254;5.900;2022-09-13T07:26:13;17.40;99.90
54140;DHT22;40046;53.254;5.900;2022-09-13T07:28:41;17.40;99.90
54140;DHT22;40046;53.254;5.900;2022-09-13T07:31:22;17.40;99.90
54140;DHT22;40046;53.254;5.900;2022-09-13T07:33:59;17.50;99.90
54140;DHT22;40046;53.254;5.900;2022-09-13T07:36:27;17.60;99.90
54140;DHT22;40046;53.254;5.900;2022-09-13T07:38:53;17.60;99.90
54140;DHT22;40046;53.254;5.900;2022-09-13T07:41:21;17.70;99.90
54140;DHT22;40046;53.254;5.900;2022-09-13T07:43:47;17.70;99.90
54140;DHT22;40046;53.254;5.900;2022-09-13T07:46:19;17.80;99.90
54140;DHT22;40046;53.254;5.900;2022-09-13T07:48:46;17.80;99.90
54140;DHT22;40046;53.254;5.900;2022-09-13T07:51:16;17.90;99.90
54140;DHT22;40046;53.254;5.900;2022-09-13T07:53:44;17.90;99.90
54140;DHT22;40046;53.254;5.900;2022-09-13T07:56:12;18.00;99.90
54140;DHT22;40046;53.254;5.900;2022-09-13T07:58:39;18.00;99.90
54140;DHT22;40046;53.254;5.900;2022-09-13T08:01:08;18.20;99.90
54140;DHT22;40046;53.254;5.900;2022-09-13T08:03:35;18.20;99.90
54140;DHT22;40046;53.254;5.900;2022-09-13T08:06:02;18.30;99.90
54140;DHT22;40046;53.254;5.900;2022-09-13T08:08:28;18.40;99.90
54140;DHT22;40046;53.254;5.900;2022-09-13T08:10:54;18.40;99.90
54140;DHT22;40046;53.254;5.900;2022-09-13T08:13:21;18.30;99.90
54140;DHT22;40046;53.254;5.900;2022-09-13T08:15:47;18.30;99.90
54140;DHT22;40046;53.254;5.900;2022-09-13T08:18:14;18.30;99.90
54140;DHT22;40046;53.254;5.900;2022-09-13T08:20:40;18.40;99.90
54140;DHT22;40046;53.254;5.900;2022-09-13T08:23:06;18.40;99.90
54140;DHT22;40046;53.254;5.900;2022-09-13T08:25:33;18.40;99.90
54140;DHT22;40046;53.254;5.900;2022-09-13T08:28:00;18.40;99.90
54140;DHT22;40046;53.254;5.900;2022-09-13T08:30:26;18.40;99.90
54140;DHT22;40046;53.254;5.900;2022-09-13T08:33:00;18.40;99.90
54140;DHT22;40046;53.254;5.900;2022-09-13T08:35:27;18.40;99.90
54140;DHT22;40046;53.254;5.900;2022-09-13T08:37:53;18.40;99.90
54140;DHT22;40046;53.254;5.900;2022-09-13T08:40:21;18.50;99.90
54140;DHT22;40046;53.254;5.900;2022-09-13T08:46:03;18.60;99.90
54140;DHT22;40046;53.254;5.900;2022-09-13T08:48:33;18.60;99.90
54140;DHT22;40046;53.254;5.900;2022-09-13T08:51:04;18.70;99.90
54140;DHT22;40046;53.254;5.900;2022-09-13T08:53:43;18.70;99.90
54140;DHT22;40046;53.254;5.900;2022-09-13T08:56:28;18.80;99.90
54140;DHT22;40046;53.254;5.900;2022-09-13T08:59:23;18.80;99.90
54140;DHT22;40046;53.254;5.900;2022-09-13T09:04:44;19.20;99.90
54140;DHT22;40046;53.254;5.900;2022-09-13T09:07:11;19.40;99.90
54140;DHT22;40046;53.254;5.900;2022-09-13T09:09:52;19.50;99.90
54140;DHT22;40046;53.254;5.900;2022-09-13T09:12:41;19.40;99.90
54140;DHT22;40046;53.254;5.900;2022-09-13T09:18:01;19.10;99.90
54140;DHT22;40046;53.254;5.900;2022-09-13T09:20:36;19.10;99.90
54140;DHT22;40046;53.254;5.900;2022-09-13T09:23:16;19.20;99.90
54140;DHT22;40046;53.254;5.900;2022-09-13T09:25:43;19.30;99.90
54140;DHT22;40046;53.254;5.900;2022-09-13T09:28:16;19.40;99.90
54140;DHT22;40046;53.254;5.900;2022-09-13T09:30:53;19.30;99.90
54140;DHT22;40046;53.254;5.900;2022-09-13T09:36:05;19.10;99.90
54140;DHT22;40046;53.254;5.900;2022-09-13T09:38:40;19.20;99.90
54140;DHT22;40046;53.254;5.900;2022-09-13T09:41:29;19.20;99.90
54140;DHT22;40046;53.254;5.900;2022-09-13T09:44:19;19.30;99.90
54140;DHT22;40046;53.254;5.900;2022-09-13T09:47:11;19.40;99.90
54140;DHT22;40046;53.254;5.900;2022-09-13T09:49:47;19.50;99.90
54140;DHT22;40046;53.254;5.900;2022-09-13T09:53:03;19.60;99.90
54140;DHT22;40046;53.254;5.900;2022-09-13T09:55:40;19.70;99.90
54140;DHT22;40046;53.254;5.900;2022-09-13T09:58:08;19.80;99.90
54140;DHT22;40046;53.254;5.900;2022-09-13T10:00:37;19.90;99.90
54140;DHT22;40046;53.254;5.900;2022-09-13T10:03:33;20.00;99.90
54140;DHT22;40046;53.254;5.900;2022-09-13T10:06:08;19.90;99.90
54140;DHT22;40046;53.254;5.900;2022-09-13T10:08:36;19.70;99.90
54140;DHT22;40046;53.254;5.900;2022-09-13T10:11:03;19.60;99.90
54140;DHT22;40046;53.254;5.900;2022-09-13T10:13:29;19.50;99.90
54140;DHT22;40046;53.254;5.900;2022-09-13T10:16:05;19.50;99.90
54140;DHT22;40046;53.254;5.900;2022-09-13T10:18:34;19.50;99.90
54140;DHT22;40046;53.254;5.900;2022-09-13T10:21:06;19.70;99.90
54140;DHT22;40046;53.254;5.900;2022-09-13T10:23:34;19.90;99.90
54140;DHT22;40046;53.254;5.900;2022-09-13T10:26:15;20.10;99.90
54140;DHT22;40046;53.254;5.900;2022-09-13T10:31:18;20.10;99.90
54140;DHT22;40046;53.254;5.900;2022-09-13T10:33:55;20.00;99.90
54140;DHT22;40046;53.254;5.900;2022-09-13T10:36:33;20.00;99.90
54140;DHT22;40046;53.254;5.900;2022-09-13T10:39:05;20.10;99.90
54140;DHT22;40046;53.254;5.900;2022-09-13T10:41:37;20.20;99.90
54140;DHT22;40046;53.254;5.900;2022-09-13T10:44:08;20.40;99.90
54140;DHT22;40046;53.254;5.900;2022-09-13T10:46:47;20.50;99.90
54140;DHT22;40046;53.254;5.900;2022-09-13T10:49:52;20.60;99.90
54140;DHT22;40046;53.254;5.900;2022-09-13T10:54:48;20.20;99.90
54140;DHT22;40046;53.254;5.900;2022-09-13T10:57:47;20.10;99.90
54140;DHT22;40046;53.254;5.900;2022-09-13T11:00:16;20.00;99.90
54140;DHT22;40046;53.254;5.900;2022-09-13T11:06:07;20.00;99.90
54140;DHT22;40046;53.254;5.900;2022-09-13T11:14:51;20.10;99.90
54140;DHT22;40046;53.254;5.900;2022-09-13T11:17:33;20.20;99.90
54140;DHT22;40046;53.254;5.900;2022-09-13T11:20:17;20.20;99.90
54140;DHT22;40046;53.254;5.900;2022-09-13T11:22:53;20.20;99.90
54140;DHT22;40046;53.254;5.900;2022-09-13T11:25:29;20.10;99.90
54140;DHT22;40046;53.254;5.900;2022-09-13T11:34:27;19.70;99.90
54140;DHT22;40046;53.254;5.900;2022-09-13T11:37:26;19.60;99.90
54140;DHT22;40046;53.254;5.900;2022-09-13T11:47:57;20.00;99.90
54140;DHT22;40046;53.254;5.900;2022-09-13T11:50:36;20.10;99.90
54140;DHT22;40046;53.254;5.900;2022-09-13T11:55:59;20.20;99.90
54140;DHT22;40046;53.254;5.900;2022-09-13T11:58:29;20.30;99.90
54140;DHT22;40046;53.254;5.900;2022-09-13T12:01:07;20.30;99.90
54140;DHT22;40046;53.254;5.900;2022-09-13T12:06:21;20.40;99.90
54140;DHT22;40046;53.254;5.900;2022-09-13T12:08:55;20.30;99.90
54140;DHT22;40046;53.254;5.900;2022-09-13T12:11:31;20.30;99.90
54140;DHT22;40046;53.254;5.900;2022-09-13T12:14:03;20.20;99.90
54140;DHT22;40046;53.254;5.900;2022-09-13T12:16:42;20.00;99.90
54140;DHT22;40046;53.254;5.900;2022-09-13T12:21:47;20.00;99.90
54140;DHT22;40046;53.254;5.900;2022-09-13T12:27:28;20.20;99.90
54140;DHT22;40046;53.254;5.900;2022-09-13T12:29:58;20.40;99.90
54140;DHT22;40046;53.254;5.900;2022-09-13T12:32:26;20.40;99.90
54140;DHT22;40046;53.254;5.900;2022-09-13T12:35:25;20.40;99.90
54140;DHT22;40046;53.254;5.900;2022-09-13T12:38:23;20.30;99.90
54140;DHT22;40046;53.254;5.900;2022-09-13T12:41:31;20.20;99.90
54140;DHT22;40046;53.254;5.900;2022-09-13T12:47:00;20.00;99.90
54140;DHT22;40046;53.254;5.900;2022-09-13T12:49:50;19.90;99.90
54140;DHT22;40046;53.254;5.900;2022-09-13T13:03:52;19.80;99.90
54140;DHT22;40046;53.254;5.900;2022-09-13T13:08:50;20.10;99.90
54140;DHT22;40046;53.254;5.900;2022-09-13T13:11:21;20.10;99.90
54140;DHT22;40046;53.254;5.900;2022-09-13T13:13:59;20.10;99.90
54140;DHT22;40046;53.254;5.900;2022-09-13T13:16:32;20.20;99.90
54140;DHT22;40046;53.254;5.900;2022-09-13T13:19:31;20.20;99.90
54140;DHT22;40046;53.254;5.900;2022-09-13T13:27:57;20.30;99.90
54140;DHT22;40046;53.254;5.900;2022-09-13T13:33:26;20.40;99.90
54140;DHT22;40046;53.254;5.900;2022-09-13T13:35:52;20.40;99.90
54140;DHT22;40046;53.254;5.900;2022-09-13T13:40:47;20.20;99.90
54140;DHT22;40046;53.254;5.900;2022-09-13T13:43:35;20.10;99.90
54140;DHT22;40046;53.254;5.900;2022-09-13T13:48:39;20.30;99.90
54140;DHT22;40046;53.254;5.900;2022-09-13T13:51:15;20.40;99.90
54140;DHT22;40046;53.254;5.900;2022-09-13T13:54:27;20.50;99.90
54140;DHT22;40046;53.254;5.900;2022-09-13T13:56:45;20.50;99.90
54140;DHT22;40046;53.254;5.900;2022-09-13T14:01:44;20.30;99.90
54140;DHT22;40046;53.254;5.900;2022-09-13T14:09:49;20.10;99.90
54140;DHT22;40046;53.254;5.900;2022-09-13T14:12:44;20.20;99.90
54140;DHT22;40046;53.254;5.900;2022-09-13T14:18:02;20.20;99.90
54140;DHT22;40046;53.254;5.900;2022-09-13T14:20:32;20.10;99.90
54140;DHT22;40046;53.254;5.900;2022-09-13T14:23:31;20.20;99.90
54140;DHT22;40046;53.254;5.900;2022-09-13T14:25:59;20.10;99.90
54140;DHT22;40046;53.254;5.900;2022-09-13T14:28:26;20.10;99.90
54140;DHT22;40046;53.254;5.900;2022-09-13T14:30:58;20.10;99.90
54140;DHT22;40046;53.254;5.900;2022-09-13T14:33:30;20.00;99.90
54140;DHT22;40046;53.254;5.900;2022-09-13T14:38:32;20.00;99.90
54140;DHT22;40046;53.254;5.900;2022-09-13T14:41:13;19.80;99.90
54140;DHT22;40046;53.254;5.900;2022-09-13T14:43:40;19.70;99.90
54140;DHT22;40046;53.254;5.900;2022-09-13T14:51:22;19.40;99.90
54140;DHT22;40046;53.254;5.900;2022-09-13T14:53:53;19.50;99.90
54140;DHT22;40046;53.254;5.900;2022-09-13T14:56:33;19.50;99.90
54140;DHT22;40046;53.254;5.900;2022-09-13T14:59:03;19.50;99.90
54140;DHT22;40046;53.254;5.900;2022-09-13T15:01:33;19.50;99.90
54140;DHT22;40046;53.254;5.900;2022-09-13T15:04:01;19.50;99.90
54140;DHT22;40046;53.254;5.900;2022-09-13T15:06:30;19.60;99.90
54140;DHT22;40046;53.254;5.900;2022-09-13T15:11:58;19.50;99.90
54140;DHT22;40046;53.254;5.900;2022-09-13T15:17:13;19.40;99.90
54140;DHT22;40046;53.254;5.900;2022-09-13T15:22:24;19.30;99.90
54140;DHT22;40046;53.254;5.900;2022-09-13T15:24:56;19.40;99.90
54140;DHT22;40046;53.254;5.900;2022-09-13T15:27:30;19.30;99.90
54140;DHT22;40046;53.254;5.900;2022-09-13T15:29:59;19.40;99.90
54140;DHT22;40046;53.254;5.900;2022-09-13T15:32:40;19.40;99.90
54140;DHT22;40046;53.254;5.900;2022-09-13T15:35:26;19.40;99.90
54140;DHT22;40046;53.254;5.900;2022-09-13T15:40:56;19.60;99.90
54140;DHT22;40046;53.254;5.900;2022-09-13T15:43:23;19.60;99.90
54140;DHT22;40046;53.254;5.900;2022-09-13T15:45:48;19.70;99.90
54140;DHT22;40046;53.254;5.900;2022-09-13T15:48:31;19.70;99.90
54140;DHT22;40046;53.254;5.900;2022-09-13T15:53:30;19.60;99.90
54140;DHT22;40046;53.254;5.900;2022-09-13T15:55:56;19.60;99.90
54140;DHT22;40046;53.254;5.900;2022-09-13T15:58:22;19.50;99.90
54140;DHT22;40046;53.254;5.900;2022-09-13T16:00:47;19.40;99.90
54140;DHT22;40046;53.254;5.900;2022-09-13T16:03:13;19.30;99.90
54140;DHT22;40046;53.254;5.900;2022-09-13T16:05:39;19.30;99.90
54140;DHT22;40046;53.254;5.900;2022-09-13T16:08:09;19.20;99.90
54140;DHT22;40046;53.254;5.900;2022-09-13T16:10:35;19.20;99.90
54140;DHT22;40046;53.254;5.900;2022-09-13T16:13:01;19.10;99.90
54140;DHT22;40046;53.254;5.900;2022-09-13T16:15:27;19.10;99.90
54140;DHT22;40046;53.254;5.900;2022-09-13T16:17:53;19.10;99.90
54140;DHT22;40046;53.254;5.900;2022-09-13T16:20:19;19.00;99.90
54140;DHT22;40046;53.254;5.900;2022-09-13T16:22:45;19.00;99.90
54140;DHT22;40046;53.254;5.900;2022-09-13T16:25:12;19.00;99.90
54140;DHT22;40046;53.254;5.900;2022-09-13T16:27:39;19.00;99.90
54140;DHT22;40046;53.254;5.900;2022-09-13T16:30:06;19.00;99.90
54140;DHT22;40046;53.254;5.900;2022-09-13T16:32:32;19.00;99.90
54140;DHT22;40046;53.254;5.900;2022-09-13T16:34:57;18.90;99.90
54140;DHT22;40046;53.254;5.900;2022-09-13T16:37:23;18.80;99.90
54140;DHT22;40046;53.254;5.900;2022-09-13T16:39:49;18.80;99.90
54140;DHT22;40046;53.254;5.900;2022-09-13T16:42:16;18.70;99.90
54140;DHT22;40046;53.254;5.900;2022-09-13T16:44:42;18.60;99.90
54140;DHT22;40046;53.254;5.900;2022-09-13T16:47:09;18.60;99.90
54140;DHT22;40046;53.254;5.900;2022-09-13T16:49:35;18.50;99.90
54140;DHT22;40046;53.254;5.900;2022-09-13T16:52:01;18.50;99.90
54140;DHT22;40046;53.254;5.900;2022-09-13T16:54:28;18.40;99.90
54140;DHT22;40046;53.254;5.900;2022-09-13T16:57:00;18.30;99.90
54140;DHT22;40046;53.254;5.900;2022-09-13T16:59:26;18.20;99.90
54140;DHT22;40046;53.254;5.900;2022-09-13T17:01:52;18.10;99.90
54140;DHT22;40046;53.254;5.900;2022-09-13T17:04:17;18.10;99.90
54140;DHT22;40046;53.254;5.900;2022-09-13T17:06:43;18.00;99.90
54140;DHT22;40046;53.254;5.900;2022-09-13T17:09:09;17.90;99.90
54140;DHT22;40046;53.254;5.900;2022-09-13T17:11:38;17.90;99.90
54140;DHT22;40046;53.254;5.900;2022-09-13T17:14:06;17.80;99.90
54140;DHT22;40046;53.254;5.900;2022-09-13T17:16:38;17.80;99.90
54140;DHT22;40046;53.254;5.900;2022-09-13T17:19:08;17.70;99.90
54140;DHT22;40046;53.254;5.900;2022-09-13T17:21:34;17.60;99.90
54140;DHT22;40046;53.254;5.900;2022-09-13T17:24:01;17.60;99.90
54140;DHT22;40046;53.254;5.900;2022-09-13T17:26:27;17.60;99.90
54140;DHT22;40046;53.254;5.900;2022-09-13T17:28:53;17.50;99.90
54140;DHT22;40046;53.254;5.900;2022-09-13T17:31:19;17.50;99.90
54140;DHT22;40046;53.254;5.900;2022-09-13T17:33:44;17.50;99.90
54140;DHT22;40046;53.254;5.900;2022-09-13T17:36:12;17.40;99.90
54140;DHT22;40046;53.254;5.900;2022-09-13T17:38:39;17.50;99.90
54140;DHT22;40046;53.254;5.900;2022-09-13T17:41:13;17.50;99.90
54140;DHT22;40046;53.254;5.900;2022-09-13T17:43:40;17.50;99.90
54140;DHT22;40046;53.254;5.900;2022-09-13T17:46:12;17.50;99.90
54140;DHT22;40046;53.254;5.900;2022-09-13T17:48:38;17.50;99.90
54140;DHT22;40046;53.254;5.900;2022-09-13T17:51:07;17.50;99.90
54140;DHT22;40046;53.254;5.900;2022-09-13T17:53:37;17.50;99.90
54140;DHT22;40046;53.254;5.900;2022-09-13T17:56:04;17.50;99.90
54140;DHT22;40046;53.254;5.900;2022-09-13T17:58:30;17.50;99.90
54140;DHT22;40046;53.254;5.900;2022-09-13T18:01:07;17.40;99.90
54140;DHT22;40046;53.254;5.900;2022-09-13T18:03:33;17.40;99.90
54140;DHT22;40046;53.254;5.900;2022-09-13T18:06:01;17.40;99.90
54140;DHT22;40046;53.254;5.900;2022-09-13T18:08:29;17.40;99.90
54140;DHT22;40046;53.254;5.900;2022-09-13T18:11:08;17.40;99.90
54140;DHT22;40046;53.254;5.900;2022-09-13T18:13:35;17.40;99.90
54140;DHT22;40046;53.254;5.900;2022-09-13T18:16:08;17.40;99.90
54140;DHT22;40046;53.254;5.900;2022-09-13T18:18:35;17.40;99.90
54140;DHT22;40046;53.254;5.900;2022-09-13T18:21:01;17.40;99.90
54140;DHT22;40046;53.254;5.900;2022-09-13T18:23:27;17.30;99.90
54140;DHT22;40046;53.254;5.900;2022-09-13T18:26:04;17.30;99.90
54140;DHT22;40046;53.254;5.900;2022-09-13T18:28:32;17.40;99.90
54140;DHT22;40046;53.254;5.900;2022-09-13T18:30:59;17.30;99.90
54140;DHT22;40046;53.254;5.900;2022-09-13T18:33:26;17.30;99.90
54140;DHT22;40046;53.254;5.900;2022-09-13T18:36:00;17.30;99.90
54140;DHT22;40046;53.254;5.900;2022-09-13T18:38:27;17.30;99.90
54140;DHT22;40046;53.254;5.900;2022-09-13T18:41:05;17.30;99.90